Latest Weather Observations for Bathurst Airport

IDN60801

Issued at 12:12 pm EDT Friday 18 January 2019 (issued every 10 minutes, with the page automatically refreshed every 10 minutes)

About weather observations | Map of weather stations | Latest weather observations for NSW | Other Formats
Station Details ID: 063291 Name: BATHURST AIRPORT AWS Lat: -33.41 Lon: 149.65 Height: 744.5 m
Data from the previous 72 hours. | See also: Recent months at Bathurst Airport
Date/Time
EDT
Temp
°C
App
Temp
°C
Dew
Point
°C
Rel
Hum
%
Delta-T
°C
Wind Press
QNH
hPa
Press
MSL
hPa
Rain since
9am
mm
Dir  Spd
km/h
Gust
km/h
Spd
kts
Gust
kts
18/12:00pm 33.3 31.9 16.6 36 10.9 N 19 26 10 14 1015.8 1012.0 0.0
18/11:30am 32.6 30.5 15.1 34 11.1 N 20 26 11 14 1016.3 1012.4 0.0
18/11:00am 31.2 29.1 15.2 38 10.1 N 20 28 11 15 1016.5 1012.6 0.0
18/10:30am 29.9 30.5 16.7 45 8.5 N 9 17 5 9 1016.9 1013.0 0.0
18/10:00am 28.5 29.8 15.1 44 8.4 NNW 2 7 1 4 1017.1 1013.3 0.0
18/09:30am 27.1 28.6 15.8 50 7.1 NW 2 9 1 5 1017.3 1013.5 0.0
18/09:00am 26.0 27.4 15.4 52 6.6 WSW 2 7 1 4 1017.5 1013.6 0.0
18/08:30am 24.7 25.4 15.6 57 5.7 SW 6 9 3 5 1017.5 1013.6 0.0
18/08:00am 24.1 25.7 15.9 60 5.1 SW 2 6 1 3 1017.2 1013.4 0.0
18/07:30am 23.2 23.7 15.5 62 4.8 ESE 7 11 4 6 1017.0 1013.1 0.0
18/07:00am 21.9 21.2 15.3 66 4.1 ESE 13 17 7 9 1016.7 1012.8 0.0
18/06:30am 20.8 18.9 15.1 70 3.5 SE 19 22 10 12 1016.5 1012.6 0.0
18/06:00am 21.2 19.1 14.6 66 4.0 SE 19 24 10 13 1016.3 1012.4 0.0
18/05:30am 22.0 19.8 14.4 62 4.6 SE 19 24 10 13 1015.9 1012.1 0.0
18/05:00am 22.5 21.1 15.6 65 4.3 SE 17 22 9 12 1015.4 1011.5 0.0
18/04:30am 23.6 22.9 16.4 64 4.5 SE 15 20 8 11 1014.8 1010.9 0.0
18/04:00am 25.1 24.3 15.1 53 6.2 SE 13 17 7 9 1014.3 1010.4 0.0
18/03:30am 25.3 25.1 14.7 51 6.5 ENE 9 11 5 6 1014.0 1010.1 0.0
18/03:00am 26.7 25.8 14.8 48 7.4 E 13 20 7 11 1013.9 1010.0 0.0
18/02:30am 26.7 25.3 14.5 47 7.5 ESE 15 22 8 12 1013.4 1009.4 0.0
18/02:00am 25.3 24.8 13.8 49 7.0 SE 9 15 5 8 1013.4 1009.4 0.0
18/01:30am 26.1 25.2 13.6 46 7.6 E 11 13 6 7 1013.4 1009.4 0.0
18/01:00am 26.6 25.8 13.0 43 8.2 ENE 9 11 5 6 1013.7 1009.8 0.0
18/12:30am 27.8 26.9 12.6 39 9.2 SE 9 9 5 5 1013.8 1009.9 0.0
18/12:00am 27.4 26.9 12.6 40 8.9 SSE 7 9 4 5 1013.8 1009.9 0.0
 
Date/Time
EDT
Temp
°C
App
Temp
°C
Dew
Point
°C
Rel
Hum
%
Delta-T
°C
Wind Press
QNH
hPa
Press
MSL
hPa
Rain since
9am
mm
Dir  Spd
km/h
Gust
km/h
Spd
kts
Gust
kts
17/11:30pm 26.1 25.0 13.2 44 7.8 N 11 13 6 7 1013.6 1009.7 0.0
17/11:00pm 28.4 26.7 12.3 37 9.7 NE 13 15 7 8 1013.4 1009.4 0.0
17/10:30pm 27.7 26.6 14.3 43 8.3 NE 13 15 7 8 1013.5 1009.6 0.0
17/10:00pm 29.1 26.9 13.3 37 9.7 NE 17 20 9 11 1013.4 1009.4 0.0
17/09:30pm 29.0 26.3 13.6 38 9.5 NE 20 22 11 12 1013.2 1009.2 0.0
17/09:00pm 29.1 27.7 13.3 37 9.7 NNE 13 17 7 9 1013.0 1009.1 0.0
17/08:30pm 31.2 29.1 12.5 31 11.4 N 15 20 8 11 1012.9 1009.0 0.0
17/08:00pm 30.6 29.0 13.8 35 10.4 NE 15 17 8 9 1012.4 1008.5 0.0
17/07:30pm 31.8 30.8 15.7 37 10.3 NE 15 17 8 9 1012.2 1008.2 0.0
17/07:00pm 34.4 33.1 14.8 30 12.5 NNE 15 17 8 9 1012.1 1008.1 0.0
17/06:30pm 35.5 34.8 15.3 30 13.0 NNE 13 17 7 9 1011.9 1007.9 0.0
17/06:00pm 35.7 36.5 14.9 29 13.3 NNE 4 7 2 4 1011.9 1007.9 0.0
17/05:30pm 33.2 32.8 15.2 33 11.5 NNE 11 13 6 7 1011.9 1007.9 0.0
17/05:00pm 34.9 32.5 11.3 24 14.3 N 15 19 8 10 1012.0 1008.0 0.0
17/04:30pm 37.0 34.9 12.4 23 15.3 N 15 20 8 11 1012.3 1008.4 0.0
17/04:00pm 37.0 35.7 12.4 23 15.3 NNW 11 17 6 9 1012.5 1008.6 0.0
17/03:30pm 36.9 34.8 13.6 24 14.7 N 17 22 9 12 1012.8 1008.9 0.0
17/03:00pm 36.7 34.6 14.6 26 14.2 NE 19 30 10 16 1013.0 1009.1 0.0
17/02:30pm 36.4 34.4 13.8 26 14.3 N 17 26 9 14 1013.4 1009.4 0.0
17/02:00pm 36.3 34.7 14.9 28 13.7 N 17 28 9 15 1013.7 1009.8 0.0
17/01:30pm 36.0 34.8 16.2 31 12.9 NNE 17 26 9 14 1014.2 1010.3 0.0
17/01:00pm 35.6 34.3 15.9 31 12.8 N 17 24 9 13 1014.7 1010.8 0.0
17/12:30pm 34.9 32.6 14.7 29 12.9 N 20 30 11 16 1014.9 1011.0 0.0
17/12:00pm 34.2 32.1 14.7 31 12.4 N 19 28 10 15 1015.2 1011.3 0.0
17/11:30am 34.0 32.0 15.5 33 11.9 N 20 32 11 17 1015.6 1011.7 0.0
17/11:00am 33.3 31.2 14.8 32 11.7 NNE 19 28 10 15 1015.6 1011.7 0.0
17/10:30am 32.5 30.2 14.6 34 11.3 NNE 20 26 11 14 1015.7 1011.8 0.0
17/10:00am 30.7 32.3 15.9 40 9.5 E 2 9 1 5 1016.2 1012.3 0.0
17/09:30am 28.1 29.7 17.9 54 6.7 W 6 11 3 6 1016.6 1012.7 0.0
17/09:00am 26.9 28.2 17.1 55 6.3 W 6 9 3 5 1016.5 1012.6 0.0
17/08:30am 25.5 27.2 17.2 60 5.3 SW 4 9 2 5 1016.4 1012.5 0.0
17/08:00am 24.4 25.7 17.6 66 4.4 ENE 7 9 4 5 1016.3 1012.4 0.0
17/07:41am 22.6 24.1 17.7 74 3.1 NE 6 9 3 5 1016.3 1012.4 0.0
17/07:30am 22.0 24.5 17.2 74 3.0 CALM 0 0 0 0 1016.3 1012.4 0.0
17/07:23am 21.5 23.6 16.2 72 3.3 CALM 0 0 0 0 1016.2 1012.3 0.0
17/07:00am 20.4 22.9 17.2 82 2.0 CALM 0 0 0 0 1016.1 1012.2 0.0
17/06:30am 18.6 20.0 16.4 87 1.4 W 4 7 2 4 1015.8 1012.0 0.0
17/06:00am 18.5 18.8 15.9 85 1.6 WSW 9 13 5 7 1015.6 1011.7 0.0
17/05:30am 20.5 20.8 14.4 68 3.7 SSW 6 9 3 5 1015.2 1011.3 0.0
17/05:00am 21.2 21.0 14.6 66 4.0 WSW 9 13 5 7 1015.1 1011.2 0.0
17/04:30am 23.1 21.1 13.8 55 5.6 SSW 17 20 9 11 1014.9 1011.0 0.0
17/04:00am 25.1 22.0 13.3 48 7.1 ENE 22 28 12 15 1014.4 1010.5 0.0
17/03:30am 24.4 21.9 12.4 47 7.1 ESE 17 20 9 11 1014.6 1010.6 0.0
17/03:00am 23.5 21.7 13.4 53 6.1 SE 15 17 8 9 1015.0 1011.1 0.0
17/02:30am 23.8 23.3 13.9 54 6.0 ESE 9 11 5 6 1014.9 1011.0 0.0
17/02:00am 23.2 23.8 15.3 61 4.9 SE 6 9 3 5 1015.0 1011.1 0.0
17/01:30am 23.4 24.3 16.7 66 4.2 SSW 7 9 4 5 1015.3 1011.4 0.0
17/01:00am 23.5 24.5 16.3 64 4.5 S 6 9 3 5 1015.1 1011.2 0.0
17/12:30am 25.3 25.3 15.3 54 6.2 ESE 9 11 5 6 1015.1 1011.2 0.0
17/12:00am 24.5 25.1 14.3 53 6.2 SE 4 9 2 5 1015.3 1011.4 0.0
 
Date/Time
EDT
Temp
°C
App
Temp
°C
Dew
Point
°C
Rel
Hum
%
Delta-T
°C
Wind Press
QNH
hPa
Press
MSL
hPa
Rain since
9am
mm
Dir  Spd
km/h
Gust
km/h
Spd
kts
Gust
kts
16/11:30pm 26.4 25.7 14.2 47 7.5 SE 11 15 6 8 1015.2 1011.3 0.0
16/11:00pm 27.4 26.4 13.4 42 8.5 SE 11 13 6 7 1015.3 1011.4 0.0
16/10:30pm 27.4 26.5 14.8 46 7.8 E 13 15 7 8 1015.2 1011.3 0.0
16/10:00pm 28.3 26.6 12.6 38 9.5 E 13 15 7 8 1015.2 1011.3 0.0
16/09:30pm 28.8 27.7 10.0 31 10.9 NE 6 9 3 5 1015.1 1011.2 0.0
16/09:00pm 28.9 27.8 10.6 32 10.7 NE 7 11 4 6 1014.7 1010.8 0.0
16/08:30pm 29.7 27.5 10.8 31 11.2 NE 13 19 7 10 1014.1 1010.2 0.0
16/08:00pm 29.9 28.0 10.5 30 11.4 ENE 11 15 6 8 1013.7 1009.8 0.0
16/07:30pm 32.6 29.0 10.0 25 13.3 ENE 19 26 10 14 1013.4 1009.4 0.0
16/07:00pm 33.2 31.3 14.3 32 11.9 ENE 17 26 9 14 1013.0 1009.1 0.0
16/06:54pm 33.1 31.5 12.7 29 12.6 E 13 26 7 14 1013.0 1009.1 0.0
16/06:32pm 33.9 28.6 9.9 23 14.2 SE 28 52 15 28 1012.7 1008.8 0.0
16/06:31pm 33.9 28.4 9.2 22 14.5 SE 28 52 15 28 1012.6 1008.7 0.0
16/06:30pm 32.7 28.2 11.3 27 12.9 SE 26 48 14 26 1012.6 1008.7 0.0
16/06:00pm 34.3 31.7 12.0 25 13.7 SE 17 24 9 13 1012.7 1008.8 0.0
16/05:30pm 36.0 32.7 9.5 20 15.7 ESE 17 24 9 13 1012.3 1008.4 0.0
16/05:00pm 36.6 34.2 11.4 22 15.4 SSE 15 26 8 14 1012.0 1008.0 0.0
16/04:30pm 37.5 35.6 9.2 18 16.8 SSE 9 13 5 7 1012.2 1008.2 0.0
16/04:00pm 37.5 34.4 7.4 16 17.5 SSW 13 20 7 11 1012.5 1008.6 0.0
16/03:30pm 37.4 34.8 10.7 20 16.2 SSW 15 20 8 11 1012.8 1008.9 0.0
16/03:00pm 36.5 35.2 9.9 20 15.9 SE 7 19 4 10 1013.2 1009.2 0.0
16/02:30pm 37.3 34.8 8.2 17 17.1 SE 11 17 6 9 1013.6 1009.7 0.0
16/02:00pm 37.0 34.3 10.3 20 16.1 S 15 28 8 15 1013.8 1009.9 0.0
16/01:30pm 37.0 34.1 11.1 21 15.8 SW 17 28 9 15 1014.0 1010.1 0.0
16/01:00pm 36.0 35.2 11.6 23 14.9 SW 7 17 4 9 1014.4 1010.5 0.0
16/12:30pm 35.5 33.6 10.5 22 15.0 WSW 11 20 6 11 1014.8 1010.9 0.0
16/12:00pm 35.1 33.5 11.5 24 14.4 WSW 11 17 6 9 1015.2 1011.3 0.0
16/11:30am 34.4 34.7 13.3 28 13.2 W 4 11 2 6 1015.3 1011.4 0.0
16/11:00am 33.1 34.3 13.7 31 12.1 CALM 0 6 0 3 1015.4 1011.5 0.0
16/10:30am 31.5 32.5 13.3 33 11.2 CALM 0 4 0 2 1015.6 1011.7 0.0
16/10:00am 30.2 30.8 14.3 38 9.9 WSW 4 9 2 5 1015.6 1011.7 0.0
16/09:30am 28.3 29.3 14.2 42 8.7 WSW 2 7 1 4 1015.7 1011.8 0.0
16/09:00am 26.7 27.1 14.8 48 7.4 W 6 11 3 6 1015.8 1012.0 0.0
16/08:30am 25.5 26.0 14.0 49 7.0 SSW 4 7 2 4 1015.6 1011.7 0.0
16/08:00am 24.1 23.3 13.9 53 6.2 S 11 17 6 9 1015.2 1011.3 0.0
16/07:30am 22.7 22.2 13.7 56 5.4 SSW 9 13 5 7 1014.8 1010.9 0.0
16/07:00am 21.7 21.6 13.9 61 4.7 S 7 11 4 6 1014.3 1010.4 0.0
16/06:30am 21.5 19.8 13.7 61 4.7 SSE 15 17 8 9 1013.9 1010.0 0.0
16/06:00am 20.1 20.6 15.1 73 3.0 SSE 6 11 3 6 1013.7 1009.8 0.0
16/05:30am 21.2 21.1 13.9 63 4.4 SW 7 17 4 9 1013.6 1009.7 0.0
16/05:00am 22.1 20.6 13.2 57 5.3 ENE 13 15 7 8 1013.3 1009.3 0.0
16/04:30am 21.4 21.2 13.6 61 4.7 NNE 7 9 4 5 1013.8 1009.9 0.0
16/04:00am 21.5 21.2 13.4 60 4.8 NNE 7 9 4 5 1014.0 1010.1 0.0
16/03:30am 22.5 22.1 14.1 59 5.1 ENE 9 11 5 6 1014.1 1010.2 0.0
16/03:00am 22.8 22.2 13.6 56 5.5 E 9 11 5 6 1014.2 1010.3 0.0
16/02:30am 21.7 21.7 14.1 62 4.6 E 7 13 4 7 1014.7 1010.8 0.0
16/02:00am 23.1 20.8 14.1 57 5.5 SSW 19 33 10 18 1014.7 1010.8 0.0
16/01:30am 21.9 22.7 14.8 64 4.3 NE 4 9 2 5 1014.3 1010.4 0.0
16/01:00am 22.6 23.4 14.7 61 4.8 SSW 4 9 2 5 1014.4 1010.5 0.0
16/12:30am 24.2 23.7 12.2 47 7.1 NE 6 7 3 4 1014.3 1010.4 0.0
16/12:00am 24.7 23.7 12.3 46 7.3 ENE 9 9 5 5 1014.4 1010.5 0.0
 
Date/Time
EDT
Temp
°C
App
Temp
°C
Dew
Point
°C
Rel
Hum
%
Delta-T
°C
Wind Press
QNH
hPa
Press
MSL
hPa
Rain since
9am
mm
Dir  Spd
km/h
Gust
km/h
Spd
kts
Gust
kts
15/11:30pm 25.8 24.8 12.3 43 8.0 E 9 11 5 6 1014.6 1010.6 0.0
15/11:00pm 25.3 24.5 12.9 46 7.4 E 9 11 5 6 1014.8 1010.9 0.0
15/10:30pm 27.3 26.6 13.3 42 8.5 SE 9 11 5 6 1014.8 1010.9 0.0
15/10:00pm 27.5 27.0 13.8 43 8.4 E 9 11 5 6 1014.7 1010.8 0.0
15/09:30pm 28.6 28.1 12.5 37 9.7 NE 7 9 4 5 1014.4 1010.5 0.0
15/09:00pm 30.2 29.0 11.7 32 11.1 NE 9 9 5 5 1014.2 1010.3 0.0
15/08:30pm 31.1 31.9 12.5 32 11.3 CALM 0 0 0 0 1013.9 1010.0 0.0
15/08:00pm 32.9 33.2 10.9 26 13.2 CALM 0 0 0 0 1013.8 1009.9 0.0
15/07:30pm 33.4 32.8 12.4 28 12.9 SW 7 9 4 5 1013.5 1009.6 0.0
15/07:00pm 35.2 33.8 12.2 25 14.2 SW 11 15 6 8 1013.5 1009.6 0.0
15/06:30pm 35.9 32.4 8.7 19 16.0 WSW 17 24 9 13 1013.4 1009.4 0.0
15/06:00pm 36.3 33.1 9.8 20 15.8 WSW 17 22 9 12 1013.5 1009.6 0.0
15/05:30pm 36.4 32.4 10.6 21 15.6 WSW 22 28 12 15 1013.6 1009.7 0.0
15/05:00pm 36.5 32.5 8.4 18 16.5 W 19 32 10 17 1013.9 1010.0 0.0
15/04:30pm 36.4 32.6 9.1 19 16.2 W 19 26 10 14 1014.1 1010.2 0.0
15/04:00pm 36.6 31.7 10.0 20 16.0 WSW 26 39 14 21 1014.6 1010.6 0.0
15/03:30pm 34.9 31.2 10.0 22 14.8 WNW 20 26 11 14 1014.9 1011.0 0.0
15/03:00pm 36.6 32.3 10.7 21 15.7 W 24 33 13 18 1015.3 1011.4 0.0
15/02:30pm 36.2 31.8 10.4 21 15.5 WNW 24 35 13 19 1015.7 1011.8 0.0
15/02:00pm 35.8 32.1 11.4 23 14.9 WNW 22 37 12 20 1016.1 1012.2 0.0
15/01:30pm 35.6 32.0 9.9 21 15.3 WNW 19 30 10 16 1016.5 1012.6 0.0
15/01:00pm 35.6 32.6 12.5 24 14.3 WNW 20 30 11 16 1016.7 1012.8 0.0
15/12:30pm 35.3 33.0 12.9 26 13.9 WNW 17 26 9 14 1016.9 1013.0 0.0

Other Formats:

Comma delimited format used in spreadsheet applications
http://www.bom.gov.au/fwo/IDN60801/IDN60801.94729.axf

JavaScript Object Notation format (JSON) in row-major order
http://www.bom.gov.au/fwo/IDN60801/IDN60801.94729.json